Portada
METAR-TAF:

METAR-TAF

Aeroports :

Juigalpa, Nicaragua

latitud: 12-06N, longitud: 085-22W, altitud: 90 m

Observació

L'informe es va fer fa 7 hores i 5 minuts, a les 23:00 UTC
Vent 8 kt del Est
Temperatura 27°C
Humitat 79%
Pressió 1011 hPa
Visibilitat 10 km o més
Núvols disperses a una alçada de 2000 ft, Cumulonimbus.
Núvols disperses a una alçada de 8000 ft

METAR: MNJU 152300Z 08008KT 9999 SCT020CB SCT080 27/23 Q1011 CB NE S NW

Hora: 00:05 (06:05 UTC)


TAF: manca

Observacions i pronòstics meteorològics de més de 4000 aeroports (METAR i TAF).

Les estacions disponibles són els punts grocs i vermells al mapa.

Posi el ratolí al punt desitjat per veure el nom de l'estació.

Feu clic per veure les observacions i els pronòstics meteorològics.

Per canviar el mapa: feu clic els botons verds amb una creu de color negre per apropar; al botó verd amb un guió per allunyar la imatge; o en les fletxes verdes per a mapes adjacents.


METAR-TAF: